createdAt,value
2023-03-26T00:01:16.569Z,100829.88
2023-03-26T00:03:47.148Z,100831.81
2023-03-26T00:06:16.524Z,100831.00
2023-03-26T00:08:45.653Z,100831.16
2023-03-26T00:11:16.008Z,100826.00
2023-03-26T00:13:43.880Z,100824.84
2023-03-26T00:16:19.721Z,100826.78
2023-03-26T00:18:47.274Z,100825.16
2023-03-26T00:21:16.146Z,100822.59
2023-03-26T00:23:43.756Z,100831.31
2023-03-26T00:26:11.059Z,100820.84
2023-03-26T00:28:40.393Z,100825.16
2023-03-26T00:31:09.816Z,100815.81
2023-03-26T00:33:40.803Z,100814.19
2023-03-26T00:36:11.171Z,100822.75
2023-03-26T00:38:38.851Z,100820.31
2023-03-26T00:41:07.945Z,100807.56
2023-03-26T00:43:36.140Z,100807.72
2023-03-26T00:46:03.342Z,100801.28
2023-03-26T00:48:44.016Z,100794.00
2023-03-26T00:51:15.223Z,100792.53
2023-03-26T00:53:42.420Z,100793.03
2023-03-26T00:56:09.707Z,100788.97
2023-03-26T00:58:37.164Z,100788.47
2023-03-26T01:01:07.104Z,100785.06
2023-03-26T01:03:36.524Z,100782.16
2023-03-26T01:06:32.749Z,100789.91
2023-03-26T01:09:06.862Z,100784.75
2023-03-26T01:11:35.752Z,100783.78
2023-03-26T01:14:10.184Z,100774.56
2023-03-26T01:16:57.124Z,100784.09
2023-03-26T01:19:45.162Z,100768.59
2023-03-26T01:22:21.065Z,100767.97
2023-03-26T01:24:53.149Z,100752.00
2023-03-26T01:27:41.137Z,100754.22
2023-03-26T01:30:22.611Z,100747.91
2023-03-26T01:32:55.696Z,100740.03
2023-03-26T01:35:28.265Z,100744.38
2023-03-26T01:38:00.807Z,100741.28
2023-03-26T01:41:12.271Z,100735.31
2023-03-26T01:44:03.117Z,100735.47
2023-03-26T01:46:36.119Z,100738.22
2023-03-26T01:49:12.836Z,100728.53
2023-03-26T01:51:41.914Z,100726.28
2023-03-26T01:54:13.341Z,100718.88
2023-03-26T01:56:48.987Z,100716.59
2023-03-26T01:59:38.742Z,100715.63
2023-03-26T02:02:14.116Z,100707.88
2023-03-26T02:04:40.665Z,100709.50
2023-03-26T02:07:13.132Z,100694.66
2023-03-26T02:09:45.807Z,100690.97
2023-03-26T02:12:14.662Z,100686.31
2023-03-26T02:14:42.864Z,100687.78
2023-03-26T02:17:10.814Z,100687.44
2023-03-26T02:19:41.926Z,100685.69
2023-03-26T02:22:11.310Z,100686.31
2023-03-26T02:24:38.736Z,100683.75
2023-03-26T02:27:07.770Z,100684.69
2023-03-26T02:29:37.857Z,100675.03
2023-03-26T02:32:05.472Z,100667.44
2023-03-26T02:34:32.351Z,100674.38
2023-03-26T02:36:58.795Z,100672.25
2023-03-26T02:39:26.231Z,100661.78
2023-03-26T02:41:52.690Z,100660.66
2023-03-26T02:44:19.204Z,100652.78
2023-03-26T02:46:45.785Z,100651.81
2023-03-26T02:49:12.287Z,100646.66
2023-03-26T02:51:38.815Z,100652.31
2023-03-26T02:54:06.963Z,100653.41
2023-03-26T02:56:33.497Z,100649.72
2023-03-26T02:58:59.942Z,100653.75
2023-03-26T03:01:26.761Z,100654.25
2023-03-26T03:03:54.175Z,100649.72
2023-03-26T03:06:20.847Z,100647.63
2023-03-26T03:08:47.640Z,100640.72
2023-03-26T03:11:17.002Z,100639.56
2023-03-26T03:13:44.716Z,100635.72
2023-03-26T03:16:11.229Z,100644.72
2023-03-26T03:18:37.773Z,100639.09
2023-03-26T03:21:06.062Z,100633.75
2023-03-26T03:23:32.875Z,100636.03
2023-03-26T03:25:59.302Z,100621.50
2023-03-26T03:28:26.609Z,100613.59
2023-03-26T03:30:53.221Z,100616.00
2023-03-26T03:33:21.431Z,100619.06
2023-03-26T03:35:49.550Z,100608.75
2023-03-26T03:38:19.307Z,100609.41
2023-03-26T03:40:46.091Z,100611.81
2023-03-26T03:43:12.523Z,100608.09
2023-03-26T03:45:38.938Z,100608.72
2023-03-26T03:48:05.882Z,100608.41
2023-03-26T03:50:35.052Z,100603.91
2023-03-26T03:53:02.905Z,100608.75
2023-03-26T03:55:29.966Z,100611.97
2023-03-26T03:57:58.286Z,100611.78
2023-03-26T04:00:24.784Z,100601.94
2023-03-26T04:02:54.383Z,100593.69
2023-03-26T04:05:21.228Z,100599.16
2023-03-26T04:07:47.654Z,100595.47
2023-03-26T04:10:15.954Z,100587.53
2023-03-26T04:12:42.365Z,100596.72
2023-03-26T04:15:09.079Z,100596.56
2023-03-26T04:17:42.335Z,100589.59
2023-03-26T04:20:15.520Z,100587.69
2023-03-26T04:22:43.429Z,100575.56
2023-03-26T04:25:12.327Z,100568.59
2023-03-26T04:27:41.606Z,100562.63
2023-03-26T04:30:11.274Z,100569.44
2023-03-26T04:32:40.323Z,100564.25
2023-03-26T04:35:07.171Z,100563.28
2023-03-26T04:37:39.869Z,100558.09
2023-03-26T04:40:15.432Z,100560.53
2023-03-26T04:42:45.897Z,100551.00
2023-03-26T04:45:14.899Z,100546.81
2023-03-26T04:47:41.822Z,100539.84
2023-03-26T04:50:10.247Z,100538.88
2023-03-26T04:52:37.518Z,100531.13
2023-03-26T04:55:07.573Z,100527.75
2023-03-26T04:57:46.242Z,100518.38
2023-03-26T05:00:16.326Z,100523.56
2023-03-26T05:02:43.337Z,100524.34
2023-03-26T05:05:10.717Z,100514.19
2023-03-26T05:07:37.419Z,100508.22
2023-03-26T05:10:05.033Z,100512.59
2023-03-26T05:12:31.548Z,100508.38
2023-03-26T05:14:57.967Z,100505.78
2023-03-26T05:17:25.252Z,100502.59
2023-03-26T05:19:54.478Z,100507.28
2023-03-26T05:22:20.945Z,100505.66
2023-03-26T05:24:47.378Z,100497.13
2023-03-26T05:27:16.908Z,100492.91
2023-03-26T05:29:43.919Z,100498.09
2023-03-26T05:32:10.895Z,100485.34
2023-03-26T05:34:39.152Z,100491.28
2023-03-26T05:37:06.793Z,100485.16
2023-03-26T05:39:33.750Z,100487.75
2023-03-26T05:42:00.189Z,100475.78
2023-03-26T05:44:26.865Z,100488.09
2023-03-26T05:46:53.491Z,100474.53
2023-03-26T05:49:20.183Z,100476.47
2023-03-26T05:51:46.606Z,100478.41
2023-03-26T05:54:13.020Z,100476.81
2023-03-26T05:56:39.526Z,100471.66
2023-03-26T05:59:06.758Z,100469.19
2023-03-26T06:01:33.251Z,100455.47
2023-03-26T06:03:59.772Z,100463.22
2023-03-26T06:06:26.468Z,100460.63
2023-03-26T06:09:02.195Z,100454.34
2023-03-26T06:11:30.960Z,100452.38
2023-03-26T06:13:57.618Z,100448.03
2023-03-26T06:16:27.822Z,100436.53
2023-03-26T06:18:56.888Z,100436.38
2023-03-26T06:21:24.828Z,100439.25
2023-03-26T06:23:51.751Z,100429.91
2023-03-26T06:26:18.449Z,100433.28
2023-03-26T06:28:44.902Z,100427.31
2023-03-26T06:31:11.873Z,100430.53
2023-03-26T06:33:38.506Z,100422.59
2023-03-26T06:36:05.939Z,100430.81
2023-03-26T06:38:32.387Z,100421.94
2023-03-26T06:41:03.553Z,100427.72
2023-03-26T06:43:33.543Z,100424.97
2023-03-26T06:46:01.273Z,100421.88
2023-03-26T06:48:28.247Z,100426.06
2023-03-26T06:50:55.083Z,100421.38
2023-03-26T06:53:21.684Z,100432.31
2023-03-26T06:55:48.144Z,100423.78
2023-03-26T06:58:14.707Z,100422.78
2023-03-26T07:00:42.272Z,100414.84
2023-03-26T07:03:08.859Z,100420.47
2023-03-26T07:05:35.363Z,100417.72
2023-03-26T07:08:03.015Z,100414.16
2023-03-26T07:10:29.479Z,100412.56
2023-03-26T07:12:56.056Z,100414.34
2023-03-26T07:15:22.588Z,100410.13
2023-03-26T07:17:49.117Z,100416.94
2023-03-26T07:20:15.779Z,100415.31
2023-03-26T07:22:42.667Z,100422.91
2023-03-26T07:25:10.045Z,100427.28
2023-03-26T07:27:59.993Z,100419.69
2023-03-26T07:30:50.645Z,100420.47
2023-03-26T07:33:37.676Z,100419.00
2023-03-26T07:36:46.716Z,100407.66
2023-03-26T07:39:42.785Z,100411.88
2023-03-26T07:42:45.401Z,100405.38
2023-03-26T07:45:41.498Z,100407.72
2023-03-26T07:48:18.664Z,100411.72
2023-03-26T07:50:46.144Z,100411.56
2023-03-26T07:53:12.802Z,100409.91
2023-03-26T07:55:50.331Z,100409.72
2023-03-26T07:58:38.214Z,100413.09
2023-03-26T08:01:12.340Z,100402.31
2023-03-26T08:04:24.062Z,100403.09
2023-03-26T08:07:05.694Z,100412.31
2023-03-26T08:09:42.166Z,100406.13
2023-03-26T08:12:24.495Z,100407.66
2023-03-26T08:14:53.819Z,100400.69
2023-03-26T08:17:49.077Z,100404.72
2023-03-26T08:20:41.475Z,100402.03
2023-03-26T08:23:11.969Z,100394.09
2023-03-26T08:26:09.350Z,100399.06
2023-03-26T08:28:52.941Z,100399.91
2023-03-26T08:31:27.517Z,100392.94
2023-03-26T08:33:53.921Z,100392.31
2023-03-26T08:36:20.474Z,100395.59
2023-03-26T08:38:46.992Z,100392.91
2023-03-26T08:41:15.032Z,100394.03
2023-03-26T08:43:59.965Z,100393.44
2023-03-26T08:46:52.200Z,100397.97
2023-03-26T08:49:34.058Z,100389.78
2023-03-26T08:52:19.227Z,100404.47
2023-03-26T08:55:07.766Z,100399.09
2023-03-26T08:57:54.357Z,100400.09
2023-03-26T09:00:45.940Z,100398.66
2023-03-26T09:03:37.219Z,100405.13
2023-03-26T09:06:11.415Z,100402.09
2023-03-26T09:09:07.608Z,100398.44
2023-03-26T09:12:12.872Z,100409.91
2023-03-26T09:15:24.834Z,100406.09
2023-03-26T09:18:16.094Z,100394.91
2023-03-26T09:20:54.827Z,100422.38
2023-03-26T09:23:33.592Z,100396.53
2023-03-26T09:26:04.470Z,100410.09
2023-03-26T09:28:47.033Z,100401.19
2023-03-26T09:31:51.464Z,100401.03
2023-03-26T09:34:28.741Z,100397.50
2023-03-26T09:37:20.393Z,100407.22
2023-03-26T09:40:25.282Z,100407.56
2023-03-26T09:43:11.234Z,100406.41
2023-03-26T09:46:14.705Z,100418.53
2023-03-26T09:49:02.088Z,100414.34
2023-03-26T09:51:50.243Z,100412.09
2023-03-26T09:54:21.709Z,100417.28
2023-03-26T09:56:57.826Z,100420.81
2023-03-26T09:59:53.354Z,100421.66
2023-03-26T10:02:47.710Z,100420.81
2023-03-26T10:05:27.853Z,100423.13
2023-03-26T10:08:21.783Z,100427.66
2023-03-26T10:11:02.158Z,100424.63
2023-03-26T10:13:39.163Z,100431.72
2023-03-26T10:16:21.351Z,100428.78
2023-03-26T10:19:04.331Z,100435.06
2023-03-26T10:21:47.360Z,100433.13
2023-03-26T10:24:33.022Z,100434.06
2023-03-26T10:27:15.220Z,100432.31
2023-03-26T10:30:04.032Z,100439.25
2023-03-26T10:32:46.806Z,100438.00
2023-03-26T10:35:13.190Z,100432.66
2023-03-26T10:38:02.232Z,100443.63
2023-03-26T10:40:35.704Z,100444.56
2023-03-26T10:43:24.123Z,100448.31
2023-03-26T10:46:15.669Z,100444.28
2023-03-26T10:49:01.000Z,100448.88
2023-03-26T10:51:45.314Z,100454.25
2023-03-26T10:54:25.821Z,100451.31
2023-03-26T10:56:54.327Z,100447.88
2023-03-26T10:59:20.934Z,100456.31
2023-03-26T11:01:59.543Z,100466.69
2023-03-26T11:04:57.123Z,100468.44
2023-03-26T11:07:33.769Z,100462.19
2023-03-26T11:10:24.222Z,100462.66
2023-03-26T11:13:21.857Z,100459.25
2023-03-26T11:15:53.402Z,100457.13
2023-03-26T11:18:34.922Z,100457.84
2023-03-26T11:21:19.165Z,100461.06
2023-03-26T11:23:46.769Z,100460.41
2023-03-26T11:26:18.494Z,100477.63
2023-03-26T11:29:31.135Z,100477.41
2023-03-26T11:32:11.625Z,100474.81
2023-03-26T11:34:46.952Z,100474.69
2023-03-26T11:37:27.136Z,100487.38
2023-03-26T11:39:58.648Z,100491.00
2023-03-26T11:42:25.721Z,100495.06
2023-03-26T11:44:57.256Z,100484.25
2023-03-26T11:47:31.874Z,100487.69
2023-03-26T11:50:00.655Z,100491.41
2023-03-26T11:52:27.516Z,100492.03
2023-03-26T11:54:54.146Z,100494.28
2023-03-26T11:57:25.797Z,100497.81
2023-03-26T12:00:04.326Z,100496.34
2023-03-26T12:02:38.113Z,100499.22
2023-03-26T12:05:13.362Z,100505.19
2023-03-26T12:07:47.434Z,100506.13
2023-03-26T12:10:25.580Z,100507.25
2023-03-26T12:12:54.930Z,100494.47
2023-03-26T12:15:21.874Z,100505.38
2023-03-26T12:17:53.367Z,100505.31
2023-03-26T12:20:26.174Z,100504.31
2023-03-26T12:23:00.906Z,100506.34
2023-03-26T12:25:36.272Z,100511.13
2023-03-26T12:28:05.620Z,100505.44
2023-03-26T12:30:39.557Z,100516.50
2023-03-26T12:33:15.031Z,100513.69
2023-03-26T12:35:42.210Z,100513.97
2023-03-26T12:38:37.580Z,100524.47
2023-03-26T12:41:08.557Z,100519.91
2023-03-26T12:44:46.780Z,100525.00
2023-03-26T12:47:56.642Z,100529.34
2023-03-26T12:49:33.531Z,100532.41
2023-03-26T12:52:44.127Z,100530.19
2023-03-26T12:55:31.363Z,100535.00
2023-03-26T12:58:25.779Z,100536.78
2023-03-26T13:01:05.996Z,100542.44
2023-03-26T13:03:53.190Z,100545.97
2023-03-26T13:06:59.057Z,100550.72
2023-03-26T13:09:27.697Z,100550.63
2023-03-26T13:12:23.158Z,100552.56
2023-03-26T13:15:08.963Z,100542.88
2023-03-26T13:17:48.440Z,100550.88
2023-03-26T13:20:41.932Z,100557.19
2023-03-26T13:23:14.500Z,100561.31
2023-03-26T13:26:12.843Z,100563.59
2023-03-26T13:29:15.855Z,100568.09
2023-03-26T13:31:53.449Z,100566.16
2023-03-26T13:34:55.166Z,100575.06
2023-03-26T13:37:55.809Z,100581.31
2023-03-26T13:40:42.433Z,100589.88
2023-03-26T13:43:32.417Z,100579.09
2023-03-26T13:46:41.141Z,100575.38
2023-03-26T13:49:29.172Z,100579.56
2023-03-26T13:52:04.409Z,100581.88
2023-03-26T13:54:45.849Z,100580.38
2023-03-26T13:57:21.554Z,100580.56
2023-03-26T13:59:57.840Z,100587.50
2023-03-26T14:02:40.639Z,100586.06
2023-03-26T14:05:19.529Z,100587.84
2023-03-26T14:07:55.103Z,100598.50
2023-03-26T14:10:27.277Z,100595.38
2023-03-26T14:13:15.366Z,100602.59
2023-03-26T14:15:57.162Z,100608.34
2023-03-26T14:18:42.392Z,100621.22
2023-03-26T14:21:36.603Z,100619.09
2023-03-26T14:24:21.431Z,100623.97
2023-03-26T14:26:58.414Z,100623.06
2023-03-26T14:29:29.983Z,100615.66
2023-03-26T14:32:09.163Z,100624.84
2023-03-26T14:35:06.663Z,100637.94
2023-03-26T14:37:50.930Z,100636.88
2023-03-26T14:40:33.048Z,100652.84
2023-03-26T14:43:20.943Z,100644.13
2023-03-26T14:46:07.516Z,100656.50
2023-03-26T14:48:48.096Z,100654.28
2023-03-26T14:51:52.192Z,100661.78
2023-03-26T14:54:27.861Z,100672.47
2023-03-26T14:57:32.970Z,100680.94
2023-03-26T15:00:27.639Z,100686.50
2023-03-26T15:03:09.627Z,100686.50
2023-03-26T15:06:16.252Z,100695.84
2023-03-26T15:09:04.254Z,100700.72
2023-03-26T15:11:45.865Z,100696.88
2023-03-26T15:14:51.050Z,100705.31
2023-03-26T15:17:49.851Z,100709.53
2023-03-26T15:21:13.655Z,100713.72
2023-03-26T15:24:12.159Z,100709.97
2023-03-26T15:27:09.689Z,100722.69
2023-03-26T15:30:11.601Z,100721.75
2023-03-26T15:33:17.973Z,100726.91
2023-03-26T15:36:21.951Z,100729.38
2023-03-26T15:39:06.836Z,100736.34
2023-03-26T15:42:06.440Z,100739.44
2023-03-26T15:44:50.764Z,100739.59
2023-03-26T15:47:46.344Z,100756.88
2023-03-26T15:50:16.065Z,100767.06
2023-03-26T15:53:09.602Z,100769.66
2023-03-26T15:56:05.762Z,100777.41
2023-03-26T15:58:44.131Z,100787.13
2023-03-26T16:01:48.490Z,100778.91
2023-03-26T16:04:35.990Z,100806.16
2023-03-26T16:07:23.908Z,100798.25
2023-03-26T16:10:02.221Z,100819.25
2023-03-26T16:12:46.283Z,100815.53
2023-03-26T16:15:26.888Z,100822.59
2023-03-26T16:18:09.357Z,100822.13
2023-03-26T16:20:50.843Z,100831.50
2023-03-26T16:23:34.483Z,100837.16
2023-03-26T16:26:43.556Z,100838.63
2023-03-26T16:29:26.034Z,100839.91
2023-03-26T16:32:25.998Z,100840.38
2023-03-26T16:35:15.628Z,100859.44
2023-03-26T16:37:49.931Z,100855.22
2023-03-26T16:40:16.517Z,100867.81
2023-03-26T16:43:06.277Z,100873.28
2023-03-26T16:45:43.633Z,100885.53
2023-03-26T16:48:27.714Z,100885.84
2023-03-26T16:51:10.105Z,100889.53
2023-03-26T16:54:17.435Z,100895.19
2023-03-26T16:56:55.084Z,100906.78
2023-03-26T17:00:05.755Z,100915.19
2023-03-26T17:02:41.745Z,100928.69
2023-03-26T17:05:19.788Z,100926.72
2023-03-26T17:08:01.275Z,100929.94
2023-03-26T17:11:00.449Z,100938.31
2023-03-26T17:13:50.794Z,100944.22
2023-03-26T17:16:47.666Z,100955.13
2023-03-26T17:19:14.080Z,100953.31
2023-03-26T17:21:52.240Z,100960.69
2023-03-26T17:24:33.410Z,100967.78
2023-03-26T17:27:25.258Z,100974.56
2023-03-26T17:30:21.032Z,100977.44
2023-03-26T17:33:13.589Z,100989.66
2023-03-26T17:35:44.651Z,100990.63
2023-03-26T17:38:17.266Z,100998.53
2023-03-26T17:40:56.752Z,101009.13
2023-03-26T17:43:46.528Z,101018.13
2023-03-26T17:46:36.480Z,101015.88
2023-03-26T17:49:12.050Z,101016.16
2023-03-26T17:52:06.857Z,101017.38
2023-03-26T17:54:41.285Z,101029.09
2023-03-26T17:57:39.955Z,101033.69
2023-03-26T18:00:09.193Z,101039.16
2023-03-26T18:02:43.303Z,101032.38
2023-03-26T18:05:13.677Z,101047.78
2023-03-26T18:08:06.107Z,101053.28
2023-03-26T18:11:01.385Z,101068.41
2023-03-26T18:13:52.072Z,101068.31
2023-03-26T18:16:49.596Z,101068.47
2023-03-26T18:19:22.648Z,101077.13
2023-03-26T18:21:56.769Z,101085.66
2023-03-26T18:24:37.607Z,101083.47
2023-03-26T18:27:22.194Z,101091.88
2023-03-26T18:30:01.708Z,101094.97
2023-03-26T18:32:33.175Z,101105.81
2023-03-26T18:35:13.351Z,101106.78
2023-03-26T18:37:40.338Z,101110.81
2023-03-26T18:40:24.299Z,101124.66
2023-03-26T18:43:01.068Z,101124.00
2023-03-26T18:45:33.542Z,101133.34
2023-03-26T18:48:04.546Z,101146.38
2023-03-26T18:50:36.929Z,101144.09
2023-03-26T18:53:06.153Z,101160.47
2023-03-26T18:55:39.173Z,101163.78
2023-03-26T18:58:23.494Z,101165.81
2023-03-26T19:00:52.845Z,101175.06
2023-03-26T19:03:24.453Z,101175.75
2023-03-26T19:05:53.672Z,101186.72
2023-03-26T19:08:23.704Z,101187.56
2023-03-26T19:10:51.913Z,101195.16
2023-03-26T19:13:21.363Z,101204.91
2023-03-26T19:15:51.263Z,101205.72
2023-03-26T19:18:22.192Z,101210.59
2023-03-26T19:20:52.993Z,101209.78
2023-03-26T19:23:28.525Z,101208.16
2023-03-26T19:25:57.053Z,101219.53
2023-03-26T19:28:27.922Z,101226.31
2023-03-26T19:31:06.216Z,101232.00
2023-03-26T19:33:34.836Z,101242.16
2023-03-26T19:36:17.705Z,101242.16
2023-03-26T19:38:53.219Z,101248.63
2023-03-26T19:41:25.663Z,101247.41
2023-03-26T19:43:59.075Z,101248.47
2023-03-26T19:46:27.655Z,101259.44
2023-03-26T19:48:56.440Z,101261.47
2023-03-26T19:51:36.888Z,101257.97
2023-03-26T19:54:13.852Z,101264.88
2023-03-26T19:56:40.552Z,101280.19
2023-03-26T19:59:07.283Z,101280.03
2023-03-26T20:01:33.848Z,101280.03
2023-03-26T20:04:06.516Z,101286.00
2023-03-26T20:06:43.400Z,101292.34
2023-03-26T20:09:12.869Z,101287.19
2023-03-26T20:11:40.643Z,101300.06
2023-03-26T20:14:15.715Z,101294.78
2023-03-26T20:16:45.032Z,101307.91
2023-03-26T20:19:13.902Z,101304.00
2023-03-26T20:21:41.470Z,101309.81
2023-03-26T20:24:13.053Z,101314.84
2023-03-26T20:26:39.469Z,101322.53
2023-03-26T20:29:06.159Z,101327.31
2023-03-26T20:31:32.723Z,101327.44
2023-03-26T20:33:59.388Z,101328.91
2023-03-26T20:36:34.077Z,101328.38
2023-03-26T20:39:08.422Z,101328.06
2023-03-26T20:41:38.055Z,101340.41
2023-03-26T20:44:13.430Z,101345.00
2023-03-26T20:46:39.851Z,101351.31
2023-03-26T20:49:06.651Z,101356.03
2023-03-26T20:51:33.072Z,101361.56
2023-03-26T20:54:00.516Z,101368.59
2023-03-26T20:56:27.091Z,101375.63
2023-03-26T20:59:09.964Z,101382.09
2023-03-26T21:01:38.447Z,101388.81
2023-03-26T21:04:05.400Z,101383.78
2023-03-26T21:06:31.991Z,101383.47
2023-03-26T21:08:58.829Z,101389.25
2023-03-26T21:11:47.580Z,101393.22
2023-03-26T21:14:25.415Z,101398.28
2023-03-26T21:16:52.525Z,101397.41
2023-03-26T21:19:20.053Z,101408.41
2023-03-26T21:21:50.598Z,101403.78
2023-03-26T21:24:44.961Z,101410.31
2023-03-26T21:27:26.442Z,101403.34
2023-03-26T21:29:54.389Z,101411.41
2023-03-26T21:32:22.450Z,101416.06
2023-03-26T21:34:58.758Z,101414.13
2023-03-26T21:37:26.855Z,101420.66
2023-03-26T21:39:53.617Z,101426.97
2023-03-26T21:42:20.373Z,101426.38
2023-03-26T21:44:47.602Z,101437.25
2023-03-26T21:47:14.839Z,101442.50
2023-03-26T21:49:41.602Z,101444.34
2023-03-26T21:52:13.555Z,101454.59
2023-03-26T21:54:43.268Z,101458.25
2023-03-26T21:57:17.662Z,101465.25
2023-03-26T21:59:56.524Z,101468.63
2023-03-26T22:02:32.164Z,101476.19
2023-03-26T22:05:12.517Z,101469.09
2023-03-26T22:07:50.877Z,101481.56
2023-03-26T22:10:17.757Z,101489.72
2023-03-26T22:12:44.396Z,101490.19
2023-03-26T22:15:13.831Z,101492.31
2023-03-26T22:17:43.706Z,101502.81
2023-03-26T22:20:12.492Z,101501.53
2023-03-26T22:22:48.640Z,101504.91
2023-03-26T22:25:17.714Z,101518.22
2023-03-26T22:27:46.130Z,101513.66
2023-03-26T22:30:13.932Z,101516.81
2023-03-26T22:32:40.781Z,101505.81
2023-03-26T22:35:07.649Z,101518.78
2023-03-26T22:37:35.558Z,101520.88
2023-03-26T22:40:02.051Z,101524.53
2023-03-26T22:42:28.457Z,101529.16
2023-03-26T22:44:54.937Z,101535.38
2023-03-26T22:47:21.787Z,101536.53
2023-03-26T22:49:48.227Z,101541.06
2023-03-26T22:52:14.644Z,101545.75
2023-03-26T22:54:41.283Z,101542.00
2023-03-26T22:57:08.028Z,101545.72
2023-03-26T22:59:34.490Z,101554.56
2023-03-26T23:02:01.229Z,101560.03
2023-03-26T23:04:31.721Z,101567.38
2023-03-26T23:06:58.800Z,101571.22
2023-03-26T23:09:25.377Z,101575.78
2023-03-26T23:11:51.814Z,101578.56
2023-03-26T23:14:19.012Z,101582.84
2023-03-26T23:16:48.456Z,101579.38
2023-03-26T23:19:14.985Z,101576.00
2023-03-26T23:21:41.442Z,101587.88
2023-03-26T23:24:08.147Z,101596.41
2023-03-26T23:26:43.948Z,101595.47
2023-03-26T23:29:16.438Z,101599.47
2023-03-26T23:31:42.989Z,101600.97
2023-03-26T23:34:10.041Z,101609.28
2023-03-26T23:36:36.445Z,101608.31
2023-03-26T23:39:04.664Z,101616.97
2023-03-26T23:41:31.284Z,101628.16
2023-03-26T23:43:57.684Z,101635.75
2023-03-26T23:46:30.082Z,101631.09
2023-03-26T23:48:59.833Z,101637.66
2023-03-26T23:51:26.995Z,101636.59
2023-03-26T23:53:53.704Z,101646.84
2023-03-26T23:56:20.236Z,101651.19
2023-03-26T23:58:47.664Z,101656.09
